Time;durP1;ratioP1;P1;durP2;ratioP2;P2;SDS_P1;SDS_P2;PMS_P1;PMS_P2;Temp;Humidity;BMP_temperature;BMP_pressure;BME280_temperature;BME280_humidity;BME280_pressure;Samples;Min_cycle;Max_cycle;Signal;HPM_P1;HPM_P2
2021/06/12 00:01:12;;;;;;;7.03;4.55;;;;;;;18.73;78.23;101137.00;5074040;28;20024;-91
2021/06/12 00:03:38;;;;;;;8.40;4.32;;;;;;;18.73;78.07;101128.19;5073985;28;20025;-90
2021/06/12 00:06:04;;;;;;;7.45;4.80;;;;;;;18.58;78.76;101133.06;5073910;28;20074;-91
2021/06/12 00:08:29;;;;;;;8.80;4.55;;;;;;;18.52;79.16;101136.28;5073952;28;20067;-90
2021/06/12 00:10:55;;;;;;;8.00;5.00;;;;;;;18.69;77.79;101124.13;5088802;28;20031;-91
2021/06/12 00:13:21;;;;;;;7.80;4.50;;;;;;;18.40;78.80;101128.44;5094099;28;20036;-90
2021/06/12 00:15:46;;;;;;;7.93;4.63;;;;;;;18.55;78.00;101126.22;5093894;28;20023;-90
2021/06/12 00:18:13;;;;;;;10.05;5.32;;;;;;;18.38;79.22;101134.84;5093887;28;20511;-91
2021/06/12 00:20:39;;;;;;;12.25;5.78;;;;;;;18.35;79.26;101140.47;5093926;28;20386;-90
2021/06/12 00:23:06;;;;;;;6.43;4.95;;;;;;;18.23;79.40;101139.75;5094044;28;20493;-91
2021/06/12 00:25:32;;;;;;;11.50;5.20;;;;;;;18.10;80.63;101139.97;5094223;28;20028;-91
2021/06/12 00:27:59;;;;;;;10.45;5.38;;;;;;;18.26;79.52;101138.63;5093740;28;20034;-90
2021/06/12 00:30:25;;;;;;;9.90;5.00;;;;;;;18.37;78.05;101146.47;5093620;28;20027;-90
2021/06/12 00:32:50;;;;;;;9.90;5.13;;;;;;;18.40;77.32;101154.16;5093727;28;20016;-91
2021/06/12 00:35:16;;;;;;;10.07;5.32;;;;;;;18.36;77.98;101155.41;5093643;28;20028;-90
2021/06/12 00:37:42;;;;;;;9.15;5.68;;;;;;;18.07;78.94;101155.34;5092316;28;20039;-90
2021/06/12 00:40:10;;;;;;;11.38;6.50;;;;;;;17.89;80.20;101153.34;5093280;28;20023;-91
2021/06/12 00:42:40;;;;;;;11.40;5.65;;;;;;;17.77;80.54;101159.66;5093445;28;20092;-90
2021/06/12 00:45:13;;;;;;;11.20;5.25;;;;;;;18.24;78.02;101142.22;5093539;28;20485;-90
2021/06/12 00:47:39;;;;;;;12.00;6.30;;;;;;;18.12;77.02;101147.81;5093202;28;20024;-90
2021/06/12 00:50:06;;;;;;;13.05;6.43;;;;;;;18.28;77.18;101145.47;5093348;28;20103;-90
2021/06/12 00:52:32;;;;;;;12.02;5.95;;;;;;;18.37;76.23;101142.00;5093238;28;20028;-90
2021/06/12 00:54:58;;;;;;;10.02;5.85;;;;;;;18.28;76.19;101144.63;5092951;28;20454;-89
2021/06/12 00:57:24;;;;;;;8.02;5.07;;;;;;;18.21;76.73;101136.38;5093149;28;20374;-90
2021/06/12 00:59:49;;;;;;;11.20;5.22;;;;;;;17.98;77.79;101123.28;5093185;28;20499;-90
2021/06/12 01:02:14;;;;;;;16.95;6.43;;;;;;;17.88;78.02;101121.59;5092843;28;20069;-90
2021/06/12 01:04:40;;;;;;;10.73;5.93;;;;;;;17.95;77.90;101120.91;5092905;28;20509;-90
2021/06/12 01:07:05;;;;;;;13.27;5.78;;;;;;;17.95;77.49;101122.72;5093053;28;20031;-90
2021/06/12 01:09:31;;;;;;;13.32;6.32;;;;;;;17.82;77.02;101125.59;5092115;28;20144;-90
2021/06/12 01:12:04;;;;;;;14.48;6.68;;;;;;;17.75;79.01;101125.28;5092895;28;20481;-90
2021/06/12 01:14:33;;;;;;;14.80;6.32;;;;;;;17.74;78.62;101130.72;5092931;28;20020;-90
2021/06/12 01:17:05;;;;;;;12.23;6.07;;;;;;;17.70;78.24;101130.16;5092892;28;20422;-90
2021/06/12 01:19:58;;;;;;;12.55;6.60;;;;;;;17.78;78.32;101129.47;5092856;28;20084;-90
2021/06/12 01:22:38;;;;;;;12.95;6.88;;;;;;;17.57;79.59;101126.84;5092399;28;20097;-90
2021/06/12 01:25:14;;;;;;;14.98;6.47;;;;;;;17.69;77.80;101132.94;5092599;28;20051;-90
2021/06/12 01:28:09;;;;;;;15.65;7.00;;;;;;;17.65;78.33;101132.34;5092427;28;20024;-90
2021/06/12 01:30:35;;;;;;;17.77;6.97;;;;;;;17.55;79.28;101128.81;5092674;28;20032;-90
2021/06/12 01:33:07;;;;;;;13.23;6.85;;;;;;;17.64;78.48;101141.31;5092153;28;20031;-90
2021/06/12 01:35:40;;;;;;;15.07;7.15;;;;;;;17.60;78.54;101139.88;5092448;28;20032;-90
2021/06/12 01:38:10;;;;;;;21.30;8.20;;;;;;;17.62;78.88;101130.81;5092284;28;20028;-90
2021/06/12 01:40:40;;;;;;;14.98;6.53;;;;;;;17.62;78.77;101140.59;5092335;28;20103;-90
2021/06/12 01:43:09;;;;;;;12.65;6.70;;;;;;;17.60;78.95;101148.69;5092451;28;20104;-90
2021/06/12 01:45:35;;;;;;;11.13;6.30;;;;;;;17.48;78.85;101148.91;5091573;28;20056;-90
2021/06/12 01:48:01;;;;;;;14.40;6.20;;;;;;;17.50;78.70;101157.59;5092042;28;20112;-90
2021/06/12 01:50:27;;;;;;;13.73;6.78;;;;;;;17.41;78.83;101154.72;5092119;28;20024;-90
2021/06/12 01:52:55;;;;;;;19.20;7.85;;;;;;;17.47;79.35;101152.53;5092139;28;20016;-90
2021/06/12 01:55:25;;;;;;;14.25;6.88;;;;;;;17.47;78.18;101149.88;5090768;28;20107;-90
2021/06/12 01:57:51;;;;;;;13.50;7.00;;;;;;;17.41;78.17;101154.72;5091971;28;20439;-89
2021/06/12 02:00:17;;;;;;;16.95;6.57;;;;;;;17.42;78.13;101156.41;5092105;28;20020;-91
2021/06/12 02:02:46;;;;;;;14.40;7.00;;;;;;;17.38;78.67;101165.59;5091408;28;20482;-90
2021/06/12 02:05:19;;;;;;;14.68;7.57;;;;;;;17.38;79.10;101162.97;5087984;28;20024;-90
2021/06/12 02:07:46;;;;;;;14.88;6.70;;;;;;;17.29;80.14;101171.69;5074399;28;20593;-90
2021/06/12 02:10:16;;;;;;;17.92;8.07;;;;;;;17.31;80.93;101164.44;5072167;28;20028;-91
2021/06/12 02:12:42;;;;;;;15.95;8.38;;;;;;;17.34;81.53;101172.16;5071827;28;20024;-90
2021/06/12 02:15:09;;;;;;;17.02;8.60;;;;;;;17.39;82.15;101169.94;5074003;28;20023;-91
2021/06/12 02:17:36;;;;;;;17.05;10.15;;;;;;;17.40;82.46;101173.44;5091771;28;20105;-91
2021/06/12 02:20:06;;;;;;;30.38;12.23;;;;;;;17.32;83.42;101171.44;5091895;28;20020;-91
2021/06/12 02:22:33;;;;;;;25.95;12.85;;;;;;;17.21;83.94;101164.38;5091346;28;20130;-90
2021/06/12 02:24:58;;;;;;;28.60;13.35;;;;;;;17.31;84.15;101156.47;5091857;28;20030;-90
2021/06/12 02:27:24;;;;;;;30.08;13.68;;;;;;;17.44;82.82;101157.13;5092093;28;20016;-90
2021/06/12 02:29:55;;;;;;;30.83;15.57;;;;;;;17.06;86.43;101165.63;5091733;28;20078;-90
2021/06/12 02:32:21;;;;;;;35.28;14.93;;;;;;;16.99;87.41;101167.97;5091733;28;20024;-90
2021/06/12 02:34:47;;;;;;;31.73;15.40;;;;;;;17.42;84.29;101160.88;5094015;28;20107;-91
2021/06/12 02:37:12;;;;;;;32.42;16.48;;;;;;;17.39;83.79;101161.97;5095758;28;20139;-90
2021/06/12 02:39:38;;;;;;;33.88;16.98;;;;;;;17.22;85.52;101154.63;5095394;28;20051;-90
2021/06/12 02:42:04;;;;;;;31.08;16.42;;;;;;;17.21;85.32;101152.91;5094385;28;20032;-90
2021/06/12 02:44:30;;;;;;;39.30;17.63;;;;;;;16.94;87.21;101162.22;5095744;28;20435;-90
2021/06/12 02:46:59;;;;;;;27.63;16.73;;;;;;;17.10;86.31;101163.59;5095394;28;20031;-91
2021/06/12 02:49:29;;;;;;;36.33;17.27;;;;;;;17.14;85.79;101154.38;5095588;28;20020;-91
2021/06/12 02:52:01;;;;;;;30.63;16.40;;;;;;;17.29;85.21;101157.59;5095474;28;20500;-90
2021/06/12 02:54:27;;;;;;;32.35;16.95;;;;;;;17.30;84.56;101165.41;5094429;28;20463;-90
2021/06/12 02:56:56;;;;;;;27.55;16.77;;;;;;;17.41;82.51;101170.63;5095551;28;20031;-90
2021/06/12 02:59:23;;;;;;;27.92;17.13;;;;;;;17.14;85.60;101175.63;5095321;28;20020;-90
2021/06/12 03:01:51;;;;;;;34.53;16.77;;;;;;;17.03;86.68;101172.06;5094504;28;20020;-91
2021/06/12 03:04:19;;;;;;;30.05;16.70;;;;;;;16.98;86.53;101170.75;5095254;28;20099;-90
2021/06/12 03:06:47;;;;;;;39.83;18.52;;;;;;;16.66;88.84;101164.44;5095629;28;20028;-91
2021/06/12 03:09:15;;;;;;;28.23;16.98;;;;;;;16.64;89.56;101176.16;5095433;28;20028;-90
2021/06/12 03:11:41;;;;;;;31.38;17.02;;;;;;;16.88;88.12;101183.09;5095125;28;20055;-90
2021/06/12 03:14:09;;;;;;;31.25;17.52;;;;;;;16.93;87.41;101186.22;5093858;28;20103;-90
2021/06/12 03:16:38;;;;;;;35.25;16.75;;;;;;;17.04;85.67;101187.03;5094746;28;20024;-90
2021/06/12 03:19:04;;;;;;;37.50;18.73;;;;;;;16.98;86.55;101197.28;5093780;28;20424;-90
2021/06/12 03:21:29;;;;;;;32.55;17.90;;;;;;;17.09;84.96;101191.09;5094712;28;20047;-90
2021/06/12 03:23:57;;;;;;;31.67;18.23;;;;;;;16.88;86.13;101191.88;5094991;28;20059;-90
2021/06/12 03:26:24;;;;;;;29.83;18.50;;;;;;;16.74;87.58;101185.03;5094765;28;20445;-90
2021/06/12 03:28:50;;;;;;;32.83;19.15;;;;;;;16.90;86.21;101192.59;5094684;28;20107;-91
2021/06/12 03:31:17;;;;;;;33.58;17.30;;;;;;;17.08;84.56;101181.44;5094887;28;20505;-91
2021/06/12 03:33:42;;;;;;;31.75;18.35;;;;;;;17.02;84.11;101173.03;5094868;28;20027;-90
2021/06/12 03:36:09;;;;;;;34.85;18.20;;;;;;;17.15;83.75;101174.66;5094571;28;20428;-90
2021/06/12 03:38:35;;;;;;;32.35;18.38;;;;;;;17.13;82.92;101190.69;5094696;28;20441;-90
2021/06/12 03:41:03;;;;;;;26.13;15.32;;;;;;;17.15;82.56;101185.28;5094604;28;20055;-91
2021/06/12 03:43:29;;;;;;;28.88;16.33;;;;;;;17.15;82.32;101193.25;5094570;28;20269;-90
2021/06/12 03:45:56;;;;;;;30.42;18.52;;;;;;;16.93;83.18;101194.19;5094035;28;20659;-90
2021/06/12 03:48:23;;;;;;;33.97;19.35;;;;;;;17.08;82.84;101187.63;5094409;28;20381;-90
2021/06/12 03:50:50;;;;;;;29.35;17.05;;;;;;;17.14;82.71;101184.44;5094478;28;20024;-90
2021/06/12 03:53:17;;;;;;;31.45;17.33;;;;;;;17.19;81.91;101168.97;5094491;28;20028;-90
2021/06/12 03:55:43;;;;;;;39.25;17.77;;;;;;;17.10;82.64;101172.41;5094401;28;20375;-90
2021/06/12 03:58:08;;;;;;;40.38;18.25;;;;;;;17.13;81.27;101187.22;5094134;28;20107;-90
2021/06/12 04:00:34;;;;;;;33.15;19.75;;;;;;;17.03;81.79;101174.72;5093933;28;20062;-90
2021/06/12 04:02:59;;;;;;;31.98;17.30;;;;;;;17.02;82.75;101182.78;5092565;28;20046;-89
2021/06/12 04:05:24;;;;;;;32.80;19.05;;;;;;;16.94;83.27;101188.75;5094212;28;20020;-90
2021/06/12 04:07:50;;;;;;;34.70;19.00;;;;;;;17.03;82.78;101192.44;5094183;28;20028;-89
2021/06/12 04:10:15;;;;;;;36.20;19.10;;;;;;;16.90;83.95;101192.59;5093049;28;20096;-89
2021/06/12 04:12:41;;;;;;;29.98;17.15;;;;;;;16.99;83.47;101196.31;5094006;28;20439;-90
2021/06/12 04:15:07;;;;;;;34.33;19.80;;;;;;;16.91;84.34;101185.50;5093722;28;20024;-89
2021/06/12 04:17:33;;;;;;;34.25;19.77;;;;;;;16.97;84.11;101203.56;5092291;28;20039;-90
2021/06/12 04:19:58;;;;;;;25.38;17.27;;;;;;;17.07;83.51;101195.69;5093784;28;20039;-90
2021/06/12 04:22:25;;;;;;;29.13;17.20;;;;;;;17.05;83.75;101207.25;5093807;28;20020;-90
2021/06/12 04:24:50;;;;;;;29.50;17.20;;;;;;;17.10;82.91;101219.31;5093831;28;20024;-90
2021/06/12 04:27:16;;;;;;;26.50;17.45;;;;;;;16.98;83.82;101203.44;5093838;28;20092;-90
2021/06/12 04:29:41;;;;;;;34.72;17.45;;;;;;;16.95;83.82;101206.34;5092272;28;20052;-90
2021/06/12 04:32:06;;;;;;;34.08;16.83;;;;;;;17.04;84.13;101210.91;5093224;28;20040;-90
2021/06/12 04:34:32;;;;;;;28.13;16.90;;;;;;;17.06;83.44;101205.44;5093628;28;20067;-90
2021/06/12 04:36:59;;;;;;;29.85;16.45;;;;;;;17.09;84.10;101207.03;5093561;28;20566;-90
2021/06/12 04:39:25;;;;;;;27.25;15.15;;;;;;;17.26;82.68;101198.50;5093511;28;20059;-90
2021/06/12 04:41:50;;;;;;;25.70;14.65;;;;;;;17.25;82.49;101197.63;5093399;28;20056;-90
2021/06/12 04:44:15;;;;;;;24.25;13.85;;;;;;;17.15;82.79;101203.84;5093762;28;20060;-90
2021/06/12 04:46:42;;;;;;;33.90;15.10;;;;;;;17.03;83.18;101203.06;5093142;28;20836;-90
2021/06/12 04:49:08;;;;;;;22.98;12.85;;;;;;;17.17;83.89;101205.41;5093343;28;20028;-90
2021/06/12 04:51:33;;;;;;;26.00;14.07;;;;;;;17.18;82.85;101206.22;5093220;28;20020;-90
2021/06/12 04:53:58;;;;;;;27.75;12.90;;;;;;;17.17;83.77;101215.19;5093032;28;20020;-90
2021/06/12 04:56:24;;;;;;;21.80;13.30;;;;;;;17.03;84.46;101213.66;5092551;28;20031;-90
2021/06/12 04:58:49;;;;;;;21.98;11.90;;;;;;;17.01;85.20;101210.31;5093125;28;20078;-90
2021/06/12 05:01:14;;;;;;;17.83;11.25;;;;;;;17.12;84.38;101217.38;5092642;28;20031;-90
2021/06/12 05:03:40;;;;;;;25.38;13.20;;;;;;;17.05;84.34;101217.88;5092878;28;20225;-90
2021/06/12 05:06:05;;;;;;;24.27;11.90;;;;;;;17.27;83.35;101218.75;5080098;28;20048;-90
2021/06/12 05:08:30;;;;;;;22.90;11.95;;;;;;;17.35;82.67;101218.94;5093026;28;20036;-90
2021/06/12 05:10:56;;;;;;;18.52;11.52;;;;;;;17.35;83.10;101229.56;5092945;28;20024;-90
2021/06/12 05:13:21;;;;;;;20.60;12.00;;;;;;;17.42;82.80;101229.91;5092998;28;20027;-90
2021/06/12 05:15:47;;;;;;;22.10;12.00;;;;;;;17.53;82.80;101231.66;5092466;28;20028;-91
2021/06/12 05:18:15;;;;;;;22.48;12.00;;;;;;;17.28;83.72;101232.84;5092769;28;20049;-90
2021/06/12 05:20:40;;;;;;;20.10;11.02;;;;;;;17.28;84.11;101223.09;5092711;28;20028;-90
2021/06/12 05:23:06;;;;;;;18.58;11.10;;;;;;;17.41;83.42;101229.03;5092672;28;20025;-91
2021/06/12 05:25:33;;;;;;;28.98;12.20;;;;;;;17.24;84.78;101241.09;5092472;28;20036;-91
2021/06/12 05:27:58;;;;;;;18.70;11.52;;;;;;;17.45;84.09;101227.81;5092386;28;20500;-91
2021/06/12 05:30:23;;;;;;;23.13;11.65;;;;;;;17.52;83.72;101229.97;5090816;28;20040;-91
2021/06/12 05:32:49;;;;;;;25.27;11.15;;;;;;;17.50;83.08;101234.56;5092414;28;20027;-90
2021/06/12 05:35:14;;;;;;;20.35;10.60;;;;;;;17.53;82.71;101243.09;5092297;28;20390;-91
2021/06/12 05:37:40;;;;;;;22.95;13.15;;;;;;;17.44;83.59;101249.22;5092555;28;20126;-90
2021/06/12 05:40:08;;;;;;;22.63;11.77;;;;;;;17.54;84.03;101249.28;5090910;28;20046;-91
2021/06/12 05:42:34;;;;;;;21.88;11.18;;;;;;;17.57;83.90;101259.63;5090882;28;20024;-90
2021/06/12 05:45:00;;;;;;;20.65;10.00;;;;;;;17.69;82.46;101252.44;5092182;28;20445;-90
2021/06/12 05:47:25;;;;;;;22.63;11.02;;;;;;;17.45;84.47;101254.38;5092731;28;20111;-91
2021/06/12 05:49:51;;;;;;;24.15;9.05;;;;;;;17.83;82.10;101262.72;5092303;28;20374;-90
2021/06/12 05:52:16;;;;;;;19.23;9.90;;;;;;;17.76;83.03;101265.06;5090768;28;20030;-91
2021/06/12 05:54:41;;;;;;;23.25;11.00;;;;;;;17.70;82.70;101262.09;5091650;28;20481;-91
2021/06/12 05:57:07;;;;;;;24.20;10.50;;;;;;;17.72;83.75;101271.63;5091724;28;20030;-91
2021/06/12 05:59:32;;;;;;;27.35;11.05;;;;;;;17.88;81.40;101265.03;5072393;28;20028;-90
2021/06/12 06:01:58;;;;;;;17.63;10.23;;;;;;;17.78;82.40;101272.91;5071869;28;20462;-90
2021/06/12 06:04:23;;;;;;;19.77;10.05;;;;;;;17.74;82.67;101277.63;5072009;28;20090;-91
2021/06/12 06:06:50;;;;;;;21.38;10.95;;;;;;;18.08;81.77;101280.09;5071839;28;20075;-90
2021/06/12 06:09:16;;;;;;;22.90;11.38;;;;;;;18.25;81.36;101281.31;5080106;28;20089;-90
2021/06/12 06:11:41;;;;;;;19.73;10.07;;;;;;;18.68;79.34;101284.69;5091727;28;20420;-90
2021/06/12 06:14:07;;;;;;;21.35;10.43;;;;;;;18.88;76.28;101294.44;5091921;28;20028;-90
2021/06/12 06:16:32;;;;;;;20.73;9.65;;;;;;;19.16;74.46;101290.16;5091829;28;20384;-90
2021/06/12 06:18:57;;;;;;;16.27;8.77;;;;;;;19.77;72.12;101294.38;5092009;28;20024;-90
2021/06/12 06:21:23;;;;;;;14.38;7.82;;;;;;;20.13;69.43;101291.91;5092000;28;20043;-90
2021/06/12 06:23:48;;;;;;;17.88;7.93;;;;;;;20.74;66.76;101301.22;5091541;28;20039;-90
2021/06/12 06:26:13;;;;;;;17.45;7.70;;;;;;;20.92;65.16;101301.25;5091554;28;20533;-90
2021/06/12 06:28:39;;;;;;;14.18;7.80;;;;;;;21.20;64.52;101303.88;5091612;28;20028;-90
2021/06/12 06:31:05;;;;;;;14.40;8.07;;;;;;;21.42;63.36;101302.56;5091786;28;20077;-90
2021/06/12 06:33:31;;;;;;;13.27;7.22;;;;;;;21.64;62.07;101303.13;5091820;28;20039;-90
2021/06/12 06:35:56;;;;;;;13.85;7.30;;;;;;;21.72;63.13;101309.41;5091790;28;20028;-90
2021/06/12 06:38:22;;;;;;;15.38;6.80;;;;;;;21.30;63.27;101309.97;5091607;28;20035;-90
2021/06/12 06:40:48;;;;;;;16.52;7.15;;;;;;;21.10;63.28;101303.13;5091383;28;20020;-90
2021/06/12 06:43:14;;;;;;;16.42;6.95;;;;;;;21.57;62.68;101313.59;5091805;28;20032;-90
2021/06/12 06:45:41;;;;;;;12.55;6.53;;;;;;;22.32;60.50;101316.66;5090180;28;20028;-90
2021/06/12 06:48:07;;;;;;;21.50;6.57;;;;;;;22.56;58.32;101307.91;5090728;28;20031;-90
2021/06/12 06:50:32;;;;;;;14.75;6.63;;;;;;;23.62;56.38;101308.31;5091392;28;20025;-91
2021/06/12 06:52:59;;;;;;;20.25;6.55;;;;;;;23.31;55.94;101315.16;5091508;28;20039;-89
2021/06/12 06:55:25;;;;;;;9.60;5.40;;;;;;;24.18;54.48;101314.66;5091326;28;20150;-90
2021/06/12 06:57:51;;;;;;;12.60;6.22;;;;;;;24.88;51.37;101313.91;5085933;28;20500;-90
2021/06/12 07:00:16;;;;;;;14.02;5.68;;;;;;;25.18;50.03;101316.75;5071241;28;20029;-90
2021/06/12 07:02:42;;;;;;;11.07;5.32;;;;;;;25.13;49.51;101316.44;5071001;28;20035;-89
2021/06/12 07:05:07;;;;;;;11.93;5.68;;;;;;;25.68;49.25;101310.00;5084746;28;20020;-90
2021/06/12 07:07:33;;;;;;;12.55;5.43;;;;;;;25.87;47.27;101321.25;5091232;28;20051;-90
2021/06/12 07:09:58;;;;;;;12.25;4.65;;;;;;;25.83;47.61;101330.69;5090716;28;20118;-91
2021/06/12 07:12:24;;;;;;;11.98;5.00;;;;;;;26.03;46.64;101318.44;5090841;28;20166;-92
2021/06/12 07:14:49;;;;;;;7.30;4.25;;;;;;;26.01;46.54;101330.41;5087829;28;20047;-90
2021/06/12 07:17:14;;;;;;;12.90;4.78;;;;;;;26.94;44.42;101325.47;5090310;28;20024;-91
2021/06/12 07:19:40;;;;;;;14.45;5.35;;;;;;;25.89;46.39;101328.13;5091413;28;20020;-91
2021/06/12 07:22:05;;;;;;;11.68;5.18;;;;;;;25.66;46.82;101325.47;5094772;28;20028;-90
2021/06/12 07:24:34;;;;;;;13.45;4.47;;;;;;;26.24;45.64;101335.72;5094963;28;20381;-92
2021/06/12 07:27:00;;;;;;;10.82;4.50;;;;;;;26.52;45.40;101328.66;5093281;28;20027;-92
2021/06/12 07:29:25;;;;;;;10.57;3.75;;;;;;;27.32;43.08;101325.28;5092486;28;20028;-91
2021/06/12 07:31:51;;;;;;;12.38;3.80;;;;;;;27.19;42.84;101329.47;5094732;28;20031;-91
2021/06/12 07:34:17;;;;;;;6.93;3.35;;;;;;;27.73;42.83;101324.63;5093948;28;20064;-90
2021/06/12 07:36:42;;;;;;;8.13;3.53;;;;;;;28.22;41.75;101332.66;5094851;28;20028;-91
2021/06/12 07:39:09;;;;;;;7.32;3.13;;;;;;;28.38;40.33;101323.41;5093026;28;20513;-91
2021/06/12 07:41:36;;;;;;;11.95;3.05;;;;;;;28.69;40.25;101319.41;5091893;28;20038;-91
2021/06/12 07:44:02;;;;;;;7.00;3.22;;;;;;;29.94;38.52;101321.69;5092058;28;20093;-91
2021/06/12 07:46:27;;;;;;;10.45;4.15;;;;;;;29.30;38.49;101329.38;5094305;28;20474;-91
2021/06/12 07:48:53;;;;;;;9.02;3.35;;;;;;;28.61;39.09;101328.53;5092325;28;20028;-91
2021/06/12 07:51:19;;;;;;;8.15;3.75;;;;;;;28.52;39.00;101334.31;5092577;28;20390;-91
2021/06/12 07:53:44;;;;;;;7.50;3.13;;;;;;;29.80;37.68;101327.16;5094111;28;20241;-91
2021/06/12 07:56:10;;;;;;;9.68;3.08;;;;;;;30.08;36.71;101322.53;5093461;28;20085;-91
2021/06/12 07:58:35;;;;;;;6.28;2.75;;;;;;;30.84;36.65;101325.41;5093256;28;20233;-91
2021/06/12 08:01:01;;;;;;;8.63;3.38;;;;;;;30.73;35.85;101323.38;5093628;28;20123;-92
2021/06/12 08:03:28;;;;;;;8.90;3.47;;;;;;;30.40;34.86;101321.63;5093636;28;20024;-92
2021/06/12 08:05:53;;;;;;;10.60;3.05;;;;;;;31.41;34.79;101330.09;5093674;28;20482;-92
2021/06/12 08:08:19;;;;;;;8.73;3.38;;;;;;;31.95;32.48;101322.34;5091310;28;20111;-91
2021/06/12 08:10:44;;;;;;;5.72;3.03;;;;;;;31.80;33.69;101322.72;5076309;28;20077;-90
2021/06/12 08:13:09;;;;;;;7.95;2.90;;;;;;;32.10;33.36;101311.16;5091749;28;20024;-91
2021/06/12 08:15:35;;;;;;;8.05;3.25;;;;;;;33.34;31.53;101314.38;5091690;28;20028;-92
2021/06/12 08:18:00;;;;;;;9.13;2.60;;;;;;;33.56;30.28;101320.06;5091103;28;20421;-90
2021/06/12 08:20:26;;;;;;;6.05;2.92;;;;;;;33.70;30.16;101323.44;5093393;28;20066;-91
2021/06/12 08:22:52;;;;;;;4.80;2.15;;;;;;;34.03;29.86;101319.28;5091417;28;20362;-91
2021/06/12 08:25:18;;;;;;;7.05;2.67;;;;;;;33.85;30.07;101314.78;5091636;28;20036;-90
2021/06/12 08:27:44;;;;;;;5.10;2.38;;;;;;;34.11;29.62;101318.09;5088942;28;20150;-90
2021/06/12 08:30:11;;;;;;;7.47;3.20;;;;;;;34.55;29.48;101319.31;5091199;28;20066;-91
2021/06/12 08:32:36;;;;;;;12.52;3.53;;;;;;;34.35;29.69;101308.81;5087028;28;20103;-91
2021/06/12 08:35:02;;;;;;;5.13;2.08;;;;;;;34.10;29.10;101310.97;5089231;28;20533;-91
2021/06/12 08:37:27;;;;;;;6.93;2.20;;;;;;;34.51;28.22;101309.13;5088755;28;20405;-92
2021/06/12 08:39:54;;;;;;;5.72;2.38;;;;;;;34.02;28.85;101304.00;5092375;28;20028;-91
2021/06/12 08:42:20;;;;;;;11.93;3.22;;;;;;;34.76;28.77;101315.13;5089177;28;20028;-88
2021/06/12 08:44:48;;;;;;;10.38;4.07;;;;;;;33.88;29.05;101322.47;5088743;28;20583;-91
2021/06/12 08:47:14;;;;;;;9.15;3.42;;;;;;;33.40;30.50;101328.94;5086877;28;20043;-90
2021/06/12 08:49:40;;;;;;;5.20;2.85;;;;;;;34.25;28.44;101321.41;5088784;28;20035;-90
2021/06/12 08:52:05;;;;;;;6.72;2.65;;;;;;;35.39;27.72;101333.41;5088393;28;20489;-87
2021/06/12 08:54:31;;;;;;;9.65;3.65;;;;;;;35.25;27.70;101333.75;5091173;28;20112;-87
2021/06/12 08:56:56;;;;;;;7.60;3.17;;;;;;;35.68;26.68;101331.47;5087169;28;20379;-87
2021/06/12 08:59:22;;;;;;;8.10;3.55;;;;;;;36.02;26.47;101328.66;5090652;28;20350;-88
2021/06/12 09:01:48;;;;;;;6.55;3.15;;;;;;;36.38;26.11;101323.69;5084429;28;20504;-87
2021/06/12 09:04:34;;;;;;;6.30;3.22;;;;;;;36.88;25.37;101326.22;5092871;28;20031;-87
2021/06/12 09:07:34;;;;;;;8.18;3.38;;;;;;;36.81;25.60;101333.81;5086404;28;20035;-87
2021/06/12 09:10:00;;;;;;;8.20;3.50;;;;;;;35.96;25.57;101344.16;5087143;28;20134;-87
2021/06/12 09:12:58;;;;;;;8.15;3.65;;;;;;;36.44;25.35;101339.09;5091545;28;20481;-87
2021/06/12 09:15:23;;;;;;;5.50;2.70;;;;;;;36.31;25.16;101346.59;5084903;28;20081;-86
2021/06/12 09:17:50;;;;;;;6.32;3.17;;;;;;;36.79;24.98;101338.72;5089457;28;20023;-87
2021/06/12 09:20:39;;;;;;;6.78;3.67;;;;;;;35.83;27.27;101344.53;5091835;28;20541;-85
2021/06/12 09:23:08;;;;;;;11.50;4.38;;;;;;;33.58;28.00;101345.16;5091682;28;20028;-84
2021/06/12 09:25:42;;;;;;;8.02;3.92;;;;;;;34.88;27.18;101344.25;5089854;28;20028;-84
2021/06/12 09:28:08;;;;;;;8.10;4.13;;;;;;;35.12;26.79;101348.50;5085694;28;20085;-84
2021/06/12 09:30:34;;;;;;;7.72;3.65;;;;;;;34.22;27.52;101352.69;5071917;28;20028;-84
2021/06/12 09:33:00;;;;;;;10.05;3.42;;;;;;;34.96;26.96;101352.84;5073385;28;20013;-84
2021/06/12 09:35:31;;;;;;;8.27;3.97;;;;;;;35.87;25.84;101342.97;5090596;28;20024;-84
2021/06/12 09:37:58;;;;;;;9.30;3.65;;;;;;;36.24;25.36;101348.69;5091101;28;20385;-84
2021/06/12 09:40:23;;;;;;;9.18;3.75;;;;;;;36.57;25.07;101349.63;5091499;28;20019;-84
2021/06/12 09:42:50;;;;;;;11.85;4.07;;;;;;;35.32;26.20;101352.72;5091335;28;20047;-84
2021/06/12 09:45:24;;;;;;;11.65;4.00;;;;;;;35.84;26.87;101351.66;5092256;28;20059;-84
2021/06/12 09:47:49;;;;;;;15.52;4.82;;;;;;;36.52;25.35;101355.06;5087638;28;20294;-84
2021/06/12 09:50:20;;;;;;;7.80;3.83;;;;;;;36.57;25.33;101351.56;5089526;28;20027;-84
2021/06/12 09:52:52;;;;;;;7.90;4.00;;;;;;;36.83;25.20;101356.28;5090880;28;20106;-84
2021/06/12 09:55:35;;;;;;;9.90;4.80;;;;;;;37.00;25.82;101358.91;5091186;28;20036;-84
2021/06/12 09:58:01;;;;;;;9.80;4.20;;;;;;;34.65;27.10;101359.59;5091255;28;20020;-84
2021/06/12 10:00:39;;;;;;;8.15;3.75;;;;;;;34.81;27.46;101365.38;5089413;28;20114;-84
2021/06/12 10:03:31;;;;;;;7.93;4.10;;;;;;;35.72;26.58;101363.53;5091637;28;20028;-84
2021/06/12 10:06:12;;;;;;;7.10;3.58;;;;;;;36.41;26.41;101375.16;5091832;28;20354;-84
2021/06/12 10:08:38;;;;;;;;;;;;;;;37.09;26.21;101372.97;5091301;28;20028;-84
2021/06/12 10:11:04;;;;;;;7.93;4.32;;;;;;;37.08;25.11;101372.13;5091647;28;20384;-84
2021/06/12 10:13:30;;;;;;;7.60;4.20;;;;;;;37.11;25.50;101363.41;5092283;28;20036;-84
2021/06/12 10:15:56;;;;;;;9.25;5.18;;;;;;;35.98;26.00;101379.44;5092003;28;20392;-84
2021/06/12 10:18:23;;;;;;;9.40;5.50;;;;;;;34.92;27.02;101380.88;5092129;28;20083;-84
2021/06/12 10:20:49;;;;;;;10.30;4.97;;;;;;;34.12;28.29;101376.97;5091881;28;20032;-84
2021/06/12 10:23:15;;;;;;;10.85;4.63;;;;;;;34.48;28.12;101373.16;5091944;28;20269;-84
2021/06/12 10:25:41;;;;;;;8.88;4.63;;;;;;;35.22;27.85;101367.00;5091922;28;20227;-84
2021/06/12 10:28:08;;;;;;;11.27;4.00;;;;;;;35.25;27.42;101371.97;5091802;28;20024;-84
2021/06/12 10:30:34;;;;;;;12.10;5.05;;;;;;;34.63;28.01;101374.53;5091810;28;20024;-84
2021/06/12 10:32:59;;;;;;;8.93;4.10;;;;;;;33.91;28.98;101368.31;5091997;28;20446;-83
2021/06/12 10:35:26;;;;;;;10.90;4.60;;;;;;;31.91;31.95;101381.72;5091652;28;20028;-83
2021/06/12 10:38:13;;;;;;;7.03;4.35;;;;;;;32.20;31.53;101385.63;5091835;28;20432;-83
2021/06/12 10:40:49;;;;;;;7.15;3.50;;;;;;;33.71;27.72;101365.09;5091706;28;20043;-83
2021/06/12 10:43:26;;;;;;;8.00;3.47;;;;;;;34.24;27.86;101364.16;5091813;28;20024;-84
2021/06/12 10:46:07;;;;;;;7.20;2.90;;;;;;;34.49;27.62;101363.09;5090298;28;20457;-83
2021/06/12 10:48:54;;;;;;;5.90;2.80;;;;;;;35.49;26.69;101367.19;5091648;28;20031;-84
2021/06/12 10:51:26;;;;;;;9.57;3.30;;;;;;;36.33;24.96;101366.31;5091647;28;20102;-84
2021/06/12 10:54:19;;;;;;;6.35;3.03;;;;;;;37.17;24.66;101369.78;5090345;28;20025;-84
2021/06/12 10:56:46;;;;;;;7.82;3.05;;;;;;;36.12;25.74;101364.38;5095560;28;20024;-84
2021/06/12 10:59:12;;;;;;;7.38;3.55;;;;;;;35.19;25.83;101358.47;5095570;28;20097;-84
2021/06/12 11:02:07;;;;;;;7.82;3.70;;;;;;;35.26;26.12;101359.97;5095600;28;20027;-84
2021/06/12 11:05:14;;;;;;;6.80;3.80;;;;;;;34.88;26.78;101368.81;5095360;28;20020;-83
2021/06/12 11:07:43;;;;;;;8.52;4.00;;;;;;;34.29;28.98;101368.94;5094921;28;20028;-83
2021/06/12 11:10:11;;;;;;;9.57;4.20;;;;;;;33.02;29.01;101360.03;5095434;28;20035;-83
2021/06/12 11:12:37;;;;;;;8.05;4.32;;;;;;;32.64;30.72;101373.91;5095294;28;20043;-83
2021/06/12 11:15:21;;;;;;;9.52;3.90;;;;;;;32.27;30.21;101365.72;5093935;28;20367;-83
2021/06/12 11:18:19;;;;;;;6.20;3.58;;;;;;;33.24;29.12;101376.72;5095235;28;20420;-83
2021/06/12 11:21:08;;;;;;;7.78;4.03;;;;;;;34.13;28.60;101370.47;5095272;28;20393;-83